createdAt,value
2022-12-08T00:02:07.425Z,15.50
2022-12-08T00:05:11.675Z,15.50
2022-12-08T00:08:15.579Z,15.50
2022-12-08T00:11:01.003Z,15.50
2022-12-08T00:13:46.723Z,15.50
2022-12-08T00:16:32.449Z,15.40
2022-12-08T00:19:17.939Z,15.40
2022-12-08T00:22:03.859Z,15.40
2022-12-08T00:24:49.442Z,15.40
2022-12-08T00:27:34.955Z,15.30
2022-12-08T00:30:20.936Z,15.40
2022-12-08T00:33:06.647Z,15.30
2022-12-08T00:35:52.010Z,15.30
2022-12-08T00:38:38.183Z,15.30
2022-12-08T00:41:45.151Z,15.30
2022-12-08T00:44:30.687Z,15.30
2022-12-08T00:47:19.762Z,15.20
2022-12-08T00:50:08.766Z,15.20
2022-12-08T00:52:54.198Z,15.20
2022-12-08T00:55:39.656Z,15.10
2022-12-08T00:58:25.363Z,15.10
2022-12-08T01:01:12.075Z,15.10
2022-12-08T01:03:57.380Z,15.10
2022-12-08T01:06:43.059Z,15.10
2022-12-08T01:09:28.788Z,15.10
2022-12-08T01:12:14.302Z,15.10
2022-12-08T01:15:02.465Z,15.10
2022-12-08T01:17:48.364Z,15.10
2022-12-08T01:20:33.806Z,15.00
2022-12-08T01:23:19.261Z,15.00
2022-12-08T01:26:07.037Z,15.00
2022-12-08T01:28:52.889Z,15.00
2022-12-08T01:31:39.610Z,15.00
2022-12-08T01:34:25.444Z,15.00
2022-12-08T01:37:12.650Z,15.00
2022-12-08T01:39:58.457Z,15.00
2022-12-08T01:42:43.907Z,14.90
2022-12-08T01:45:31.896Z,14.90
2022-12-08T01:48:27.231Z,14.90
2022-12-08T01:51:13.678Z,14.90
2022-12-08T01:53:59.320Z,14.90
2022-12-08T01:57:00.845Z,14.90
2022-12-08T01:59:56.992Z,14.80
2022-12-08T02:03:01.111Z,14.80
2022-12-08T02:05:47.986Z,14.80
2022-12-08T02:08:34.834Z,14.80
2022-12-08T02:11:20.267Z,14.80
2022-12-08T02:14:08.866Z,14.80
2022-12-08T02:17:19.301Z,14.80
2022-12-08T02:20:37.924Z,14.80
2022-12-08T02:23:29.535Z,14.80
2022-12-08T02:26:36.504Z,14.70
2022-12-08T02:29:25.053Z,14.70
2022-12-08T02:32:31.871Z,14.70
2022-12-08T02:35:20.475Z,14.70
2022-12-08T02:38:21.046Z,14.70
2022-12-08T02:41:52.464Z,14.70
2022-12-08T02:44:57.320Z,14.70
2022-12-08T02:47:43.918Z,14.70
2022-12-08T02:50:29.506Z,14.70
2022-12-08T02:56:15.542Z,14.60
2022-12-08T02:59:04.106Z,14.60
2022-12-08T03:01:49.867Z,14.60
2022-12-08T03:04:54.097Z,14.60
2022-12-08T03:08:06.101Z,14.60
2022-12-08T03:11:22.975Z,14.60
2022-12-08T03:14:11.077Z,14.60
2022-12-08T03:16:59.652Z,14.50
2022-12-08T03:19:48.158Z,14.60
2022-12-08T03:22:34.041Z,14.50
2022-12-08T03:25:25.977Z,14.50
2022-12-08T03:28:12.888Z,14.50
2022-12-08T03:31:03.061Z,14.50
2022-12-08T03:33:54.181Z,14.50
2022-12-08T03:36:39.921Z,14.50
2022-12-08T03:39:25.429Z,14.50
2022-12-08T03:42:11.175Z,14.50
2022-12-08T03:44:56.600Z,14.50
2022-12-08T03:47:42.163Z,14.50
2022-12-08T03:50:27.840Z,14.50
2022-12-08T03:53:13.342Z,14.40
2022-12-08T03:55:58.908Z,14.40
2022-12-08T03:58:44.519Z,14.50
2022-12-08T04:01:30.887Z,14.40
2022-12-08T04:04:16.371Z,14.40
2022-12-08T04:07:01.871Z,14.40
2022-12-08T04:09:47.471Z,14.40
2022-12-08T04:12:32.992Z,14.40
2022-12-08T04:15:18.445Z,14.40
2022-12-08T04:18:03.973Z,14.40
2022-12-08T04:20:49.351Z,14.30
2022-12-08T04:23:34.942Z,14.30
2022-12-08T04:26:20.396Z,14.40
2022-12-08T04:29:05.894Z,14.30
2022-12-08T04:31:51.598Z,14.30
2022-12-08T04:34:36.978Z,14.30
2022-12-08T04:37:22.611Z,14.30
2022-12-08T04:40:08.395Z,14.30
2022-12-08T04:42:53.954Z,14.30
2022-12-08T04:45:40.927Z,14.30
2022-12-08T04:48:26.454Z,14.30
2022-12-08T04:51:19.916Z,14.20
2022-12-08T04:54:05.694Z,14.20
2022-12-08T04:56:51.491Z,14.20
2022-12-08T04:59:37.106Z,14.20
2022-12-08T05:02:23.064Z,14.20
2022-12-08T05:05:08.980Z,14.20
2022-12-08T05:07:54.562Z,14.20
2022-12-08T05:10:40.502Z,14.20
2022-12-08T05:13:26.220Z,14.20
2022-12-08T05:16:14.525Z,14.10
2022-12-08T05:19:00.188Z,14.10
2022-12-08T05:21:45.902Z,14.10
2022-12-08T05:24:31.412Z,14.10
2022-12-08T05:27:16.907Z,14.10
2022-12-08T05:30:02.990Z,14.10
2022-12-08T05:32:49.103Z,14.10
2022-12-08T05:35:34.492Z,14.10
2022-12-08T05:38:20.479Z,14.10
2022-12-08T05:41:07.654Z,14.20
2022-12-08T05:43:53.274Z,14.20
2022-12-08T05:46:38.900Z,14.20
2022-12-08T05:49:24.195Z,14.20
2022-12-08T05:52:09.712Z,14.20
2022-12-08T05:55:04.714Z,14.20
2022-12-08T05:57:53.840Z,14.20
2022-12-08T06:00:39.819Z,14.30
2022-12-08T06:03:25.451Z,14.30
2022-12-08T06:06:10.834Z,14.30
2022-12-08T06:08:56.371Z,14.30
2022-12-08T06:11:43.156Z,14.20
2022-12-08T06:14:28.973Z,14.20
2022-12-08T06:17:14.597Z,14.30
2022-12-08T06:20:00.490Z,14.30
2022-12-08T06:22:45.963Z,14.30
2022-12-08T06:25:31.482Z,14.30
2022-12-08T06:28:17.125Z,14.30
2022-12-08T06:31:08.409Z,14.30
2022-12-08T06:33:54.870Z,14.30
2022-12-08T06:36:40.346Z,14.30
2022-12-08T06:39:25.820Z,14.30
2022-12-08T06:42:29.865Z,14.30
2022-12-08T06:45:17.573Z,14.30
2022-12-08T06:48:03.214Z,14.30
2022-12-08T06:50:48.851Z,14.30
2022-12-08T06:53:34.677Z,14.30
2022-12-08T06:56:20.573Z,14.30
2022-12-08T06:59:06.530Z,14.30
2022-12-08T07:01:52.516Z,14.30
2022-12-08T07:04:38.104Z,14.30
2022-12-08T07:07:23.574Z,14.20
2022-12-08T07:10:09.307Z,14.20
2022-12-08T07:12:55.144Z,14.20
2022-12-08T07:15:40.695Z,14.20
2022-12-08T07:18:26.183Z,14.20
2022-12-08T07:21:17.354Z,14.30
2022-12-08T07:24:03.245Z,14.30
2022-12-08T07:26:48.562Z,14.30
2022-12-08T07:29:34.167Z,14.30
2022-12-08T07:32:19.752Z,14.30
2022-12-08T07:35:06.490Z,14.30
2022-12-08T07:37:52.392Z,14.30
2022-12-08T07:40:39.279Z,14.30
2022-12-08T07:43:24.839Z,14.30
2022-12-08T07:46:15.633Z,14.30
2022-12-08T07:49:01.448Z,14.30
2022-12-08T07:51:46.883Z,14.30
2022-12-08T07:54:32.441Z,14.30
2022-12-08T07:57:17.924Z,14.30
2022-12-08T08:00:05.098Z,14.30
2022-12-08T08:02:57.382Z,14.30
2022-12-08T08:05:44.185Z,14.30
2022-12-08T08:08:30.202Z,14.30
2022-12-08T08:11:20.997Z,14.30
2022-12-08T08:14:07.614Z,14.30
2022-12-08T08:16:53.515Z,14.30
2022-12-08T08:19:39.049Z,14.30
2022-12-08T08:22:25.791Z,14.30
2022-12-08T08:25:11.273Z,14.30
2022-12-08T08:27:56.781Z,14.40
2022-12-08T08:30:42.730Z,14.30
2022-12-08T08:33:28.202Z,14.30
2022-12-08T08:36:13.805Z,14.30
2022-12-08T08:38:59.582Z,14.30
2022-12-08T08:41:45.278Z,14.30
2022-12-08T08:44:30.868Z,14.40
2022-12-08T08:47:16.470Z,14.40
2022-12-08T08:50:02.585Z,14.40
2022-12-08T08:52:48.905Z,14.40
2022-12-08T08:55:34.395Z,14.40
2022-12-08T08:58:20.370Z,14.40
2022-12-08T09:01:06.131Z,14.40
2022-12-08T09:03:52.332Z,14.40
2022-12-08T09:06:38.270Z,14.40
2022-12-08T09:09:23.893Z,14.40
2022-12-08T09:12:10.247Z,14.40
2022-12-08T09:14:55.994Z,14.40
2022-12-08T09:17:41.596Z,14.40
2022-12-08T09:20:27.049Z,14.40
2022-12-08T09:23:12.293Z,14.40
2022-12-08T09:25:57.862Z,14.40
2022-12-08T09:28:46.524Z,14.40
2022-12-08T09:31:32.543Z,14.40
2022-12-08T09:34:19.514Z,14.40
2022-12-08T09:37:04.991Z,14.40
2022-12-08T09:39:50.410Z,14.40
2022-12-08T09:42:44.734Z,14.40
2022-12-08T09:45:34.729Z,14.40
2022-12-08T09:48:24.217Z,14.40
2022-12-08T09:51:12.237Z,14.40
2022-12-08T09:54:14.426Z,14.40
2022-12-08T09:57:04.468Z,14.40
2022-12-08T09:59:55.245Z,14.40
2022-12-08T10:02:48.003Z,14.40
2022-12-08T10:05:37.744Z,14.40
2022-12-08T10:08:33.907Z,14.40
2022-12-08T10:12:00.972Z,14.40
2022-12-08T10:14:54.967Z,14.40
2022-12-08T10:17:49.085Z,14.40
2022-12-08T10:20:41.539Z,14.50
2022-12-08T10:23:29.789Z,14.40
2022-12-08T10:26:21.767Z,14.40
2022-12-08T10:29:12.742Z,14.40
2022-12-08T10:31:59.670Z,14.50
2022-12-08T10:35:05.016Z,14.50
2022-12-08T10:37:58.948Z,14.50
2022-12-08T10:40:46.533Z,14.50
2022-12-08T10:43:33.452Z,14.40
2022-12-08T10:46:21.744Z,14.50
2022-12-08T10:49:07.315Z,14.50
2022-12-08T10:51:52.852Z,14.50
2022-12-08T10:54:42.625Z,14.50
2022-12-08T10:57:28.312Z,14.50
2022-12-08T11:00:16.662Z,14.50
2022-12-08T11:03:04.700Z,13.70
2022-12-08T11:05:50.110Z,14.40
2022-12-08T11:08:54.404Z,14.50
2022-12-08T11:11:51.611Z,14.50
2022-12-08T11:14:43.349Z,14.50
2022-12-08T11:17:36.283Z,14.50
2022-12-08T11:20:23.505Z,14.50
2022-12-08T11:23:25.049Z,14.50
2022-12-08T11:26:32.263Z,14.50
2022-12-08T11:29:17.772Z,14.50
2022-12-08T11:32:11.983Z,14.50
2022-12-08T11:35:04.211Z,14.50
2022-12-08T11:37:49.946Z,14.50
2022-12-08T11:40:38.878Z,14.50
2022-12-08T11:43:34.556Z,14.50
2022-12-08T11:46:28.545Z,14.50
2022-12-08T11:49:14.936Z,14.50
2022-12-08T11:52:08.847Z,14.50
2022-12-08T11:55:03.527Z,14.50
2022-12-08T11:57:50.195Z,14.50
2022-12-08T12:00:35.935Z,14.50
2022-12-08T12:03:34.160Z,14.50
2022-12-08T12:06:53.354Z,14.60
2022-12-08T12:10:04.550Z,14.60
2022-12-08T12:13:27.502Z,14.50
2022-12-08T12:16:15.758Z,14.60
2022-12-08T12:19:05.571Z,14.60
2022-12-08T12:21:55.662Z,14.50
2022-12-08T12:24:45.664Z,14.50
2022-12-08T12:27:41.426Z,14.50
2022-12-08T12:30:31.099Z,14.50
2022-12-08T12:33:19.428Z,14.50
2022-12-08T12:36:08.536Z,14.50
2022-12-08T12:39:01.590Z,14.50
2022-12-08T12:41:57.245Z,14.50
2022-12-08T12:44:43.540Z,14.50
2022-12-08T12:47:49.702Z,14.50
2022-12-08T12:50:47.966Z,14.50
2022-12-08T12:53:36.559Z,14.50
2022-12-08T12:56:48.687Z,14.50
2022-12-08T12:59:56.025Z,14.50
2022-12-08T13:02:44.827Z,14.50
2022-12-08T13:05:45.907Z,14.50
2022-12-08T13:08:32.229Z,14.50
2022-12-08T13:11:18.067Z,14.50
2022-12-08T13:14:05.106Z,14.50
2022-12-08T13:16:54.798Z,14.50
2022-12-08T13:19:41.924Z,14.50
2022-12-08T13:22:49.084Z,14.50
2022-12-08T13:25:40.741Z,14.50
2022-12-08T13:28:29.366Z,14.50
2022-12-08T13:31:45.241Z,14.50
2022-12-08T13:34:45.314Z,14.50
2022-12-08T13:37:54.590Z,14.50
2022-12-08T13:40:43.226Z,14.50
2022-12-08T13:44:05.264Z,14.50
2022-12-08T13:47:32.922Z,14.50
2022-12-08T13:59:35.374Z,14.50
2022-12-08T14:02:34.054Z,14.50
2022-12-08T14:05:40.520Z,14.50
2022-12-08T14:08:58.907Z,14.50
2022-12-08T14:12:08.457Z,14.50
2022-12-08T14:15:06.280Z,14.50
2022-12-08T14:17:57.153Z,14.50
2022-12-08T14:21:19.042Z,14.50
2022-12-08T14:23:48.724Z,14.40
2022-12-08T14:26:35.462Z,14.40
2022-12-08T14:29:38.375Z,14.40
2022-12-08T14:32:26.205Z,14.30
2022-12-08T14:35:15.588Z,14.30
2022-12-08T14:38:02.555Z,14.30
2022-12-08T14:40:59.598Z,14.30
2022-12-08T14:43:45.100Z,14.30
2022-12-08T14:46:30.693Z,14.30
2022-12-08T14:49:38.874Z,14.30
2022-12-08T14:52:25.295Z,14.20
2022-12-08T14:55:15.175Z,14.20
2022-12-08T14:58:01.309Z,14.20
2022-12-08T15:00:51.511Z,14.20
2022-12-08T15:03:37.359Z,14.20
2022-12-08T15:06:23.290Z,14.20
2022-12-08T15:09:25.914Z,14.20
2022-12-08T15:12:14.735Z,14.20
2022-12-08T15:15:09.584Z,14.20
2022-12-08T15:18:24.291Z,14.10
2022-12-08T15:21:12.921Z,14.10
2022-12-08T15:23:58.579Z,14.10
2022-12-08T15:26:47.336Z,14.10
2022-12-08T15:29:33.071Z,14.10
2022-12-08T15:32:21.638Z,14.10
2022-12-08T15:35:08.224Z,14.10
2022-12-08T15:37:53.980Z,14.10
2022-12-08T15:40:39.498Z,14.10
2022-12-08T15:43:25.025Z,14.10
2022-12-08T15:46:10.993Z,14.10
2022-12-08T15:48:58.239Z,14.10
2022-12-08T15:51:44.647Z,14.10
2022-12-08T15:54:30.484Z,14.10
2022-12-08T16:00:52.271Z,14.10
2022-12-08T16:09:52.611Z,14.00
2022-12-08T16:13:55.077Z,14.00
2022-12-08T16:16:03.857Z,14.00
2022-12-08T16:18:51.147Z,14.00
2022-12-08T16:24:42.230Z,12.40
2022-12-08T16:28:12.424Z,14.00
2022-12-08T16:30:39.587Z,14.00
2022-12-08T16:33:25.075Z,14.00
2022-12-08T16:36:11.301Z,14.00
2022-12-08T16:38:56.989Z,14.00
2022-12-08T16:42:00.758Z,14.00
2022-12-08T16:44:46.190Z,14.00
2022-12-08T16:47:32.188Z,14.00
2022-12-08T16:50:29.556Z,14.00
2022-12-08T16:53:15.465Z,13.90
2022-12-08T16:56:00.932Z,13.90
2022-12-08T16:58:47.287Z,13.90
2022-12-08T17:01:33.118Z,14.00
2022-12-08T17:04:33.903Z,14.00
2022-12-08T17:07:41.721Z,14.00
2022-12-08T17:10:30.386Z,14.00
2022-12-08T17:13:16.968Z,14.00
2022-12-08T17:16:07.539Z,14.00
2022-12-08T17:18:53.897Z,14.00
2022-12-08T17:21:39.440Z,14.00
2022-12-08T17:24:29.012Z,14.00
2022-12-08T17:27:14.764Z,12.50
2022-12-08T17:30:00.349Z,14.00
2022-12-08T17:32:45.815Z,14.00
2022-12-08T17:35:31.362Z,14.00
2022-12-08T17:38:17.583Z,14.00
2022-12-08T17:41:08.216Z,14.00
2022-12-08T17:43:53.656Z,14.00
2022-12-08T17:46:42.677Z,14.10
2022-12-08T17:49:30.751Z,14.00
2022-12-08T17:52:16.170Z,14.10
2022-12-08T17:55:01.891Z,14.00
2022-12-08T17:57:47.624Z,14.10
2022-12-08T18:00:33.646Z,14.10
2022-12-08T18:03:20.042Z,14.00
2022-12-08T18:06:11.205Z,14.10
2022-12-08T18:08:58.447Z,14.10
2022-12-08T18:11:46.239Z,14.10
2022-12-08T18:14:31.773Z,14.10
2022-12-08T18:17:17.256Z,14.10
2022-12-08T18:20:03.156Z,14.10
2022-12-08T18:22:48.941Z,14.10
2022-12-08T18:25:34.366Z,14.10
2022-12-08T18:28:20.175Z,14.10
2022-12-08T18:31:16.709Z,14.10
2022-12-08T18:34:02.533Z,14.10
2022-12-08T18:36:48.306Z,14.10
2022-12-08T18:39:34.078Z,14.10
2022-12-08T18:42:25.788Z,14.20
2022-12-08T18:45:11.763Z,14.10
2022-12-08T18:47:57.151Z,14.20
2022-12-08T18:50:44.731Z,14.20
2022-12-08T18:53:31.585Z,14.20
2022-12-08T18:56:26.825Z,14.20
2022-12-08T18:59:13.147Z,14.20
2022-12-08T19:01:59.094Z,14.20
2022-12-08T19:04:44.986Z,14.30
2022-12-08T19:07:30.978Z,14.30
2022-12-08T19:10:16.834Z,14.30
2022-12-08T19:13:02.378Z,14.30
2022-12-08T19:15:48.382Z,14.30
2022-12-08T19:18:33.950Z,14.30
2022-12-08T19:21:20.371Z,14.30
2022-12-08T19:24:06.734Z,14.30
2022-12-08T19:26:53.837Z,14.20
2022-12-08T19:29:40.087Z,14.20
2022-12-08T19:32:26.749Z,14.30
2022-12-08T19:35:12.419Z,14.30
2022-12-08T19:37:58.095Z,14.30
2022-12-08T19:41:03.095Z,14.30
2022-12-08T19:44:07.039Z,14.30
2022-12-08T19:46:52.550Z,14.30
2022-12-08T19:49:39.332Z,14.30
2022-12-08T19:52:25.074Z,14.30
2022-12-08T19:55:11.404Z,14.40
2022-12-08T19:57:57.352Z,14.40
2022-12-08T20:00:43.826Z,14.40
2022-12-08T20:03:29.647Z,14.40
2022-12-08T20:06:18.048Z,14.40
2022-12-08T20:09:03.939Z,14.40
2022-12-08T20:11:50.806Z,14.40
2022-12-08T20:14:38.340Z,14.40
2022-12-08T20:17:27.202Z,14.40
2022-12-08T20:20:14.026Z,14.40
2022-12-08T20:23:00.125Z,14.40
2022-12-08T20:25:47.791Z,14.40
2022-12-08T20:28:35.616Z,14.40
2022-12-08T20:31:24.632Z,14.40
2022-12-08T20:34:17.896Z,14.40
2022-12-08T20:37:03.377Z,14.40
2022-12-08T20:39:49.332Z,14.40
2022-12-08T20:42:34.970Z,14.40
2022-12-08T20:45:20.709Z,14.40
2022-12-08T20:48:06.486Z,14.40
2022-12-08T20:50:52.351Z,14.40
2022-12-08T20:53:38.049Z,14.40
2022-12-08T20:56:24.839Z,14.40
2022-12-08T20:59:18.149Z,14.40
2022-12-08T21:02:04.453Z,14.40
2022-12-08T21:04:50.628Z,14.40
2022-12-08T21:07:36.016Z,14.40
2022-12-08T21:10:21.866Z,14.40
2022-12-08T21:13:08.212Z,14.40
2022-12-08T21:15:54.072Z,14.30
2022-12-08T21:18:40.232Z,14.30
2022-12-08T21:21:25.927Z,14.30
2022-12-08T21:24:11.852Z,14.30
2022-12-08T21:26:57.461Z,14.30
2022-12-08T21:29:42.865Z,14.30
2022-12-08T21:32:30.708Z,14.40
2022-12-08T21:35:16.756Z,14.30
2022-12-08T21:38:02.205Z,14.40
2022-12-08T21:40:47.609Z,14.40
2022-12-08T21:43:33.239Z,14.40
2022-12-08T21:46:21.249Z,14.40
2022-12-08T21:49:07.098Z,14.40
2022-12-08T21:51:52.839Z,14.40
2022-12-08T21:54:38.445Z,14.40
2022-12-08T21:57:24.556Z,14.40
2022-12-08T22:00:14.084Z,14.40
2022-12-08T22:02:59.893Z,14.40
2022-12-08T22:05:45.766Z,14.40
2022-12-08T22:08:31.101Z,14.40
2022-12-08T22:11:18.034Z,14.40
2022-12-08T22:14:03.654Z,14.40
2022-12-08T22:16:49.885Z,14.40
2022-12-08T22:19:35.907Z,14.40
2022-12-08T22:22:21.895Z,14.50
2022-12-08T22:25:11.873Z,14.40
2022-12-08T22:27:57.803Z,14.50
2022-12-08T22:30:43.187Z,14.40
2022-12-08T22:33:29.832Z,14.50
2022-12-08T22:36:24.581Z,14.50
2022-12-08T22:39:10.507Z,14.40
2022-12-08T22:41:56.115Z,14.40
2022-12-08T22:44:41.585Z,14.40
2022-12-08T22:47:27.226Z,14.50
2022-12-08T22:50:13.029Z,14.40
2022-12-08T22:52:58.813Z,14.40
2022-12-08T22:55:44.941Z,14.40
2022-12-08T22:58:30.418Z,14.30
2022-12-08T23:01:24.948Z,14.30
2022-12-08T23:04:17.223Z,14.30
2022-12-08T23:07:03.835Z,14.30
2022-12-08T23:09:49.586Z,14.20
2022-12-08T23:12:35.367Z,14.20
2022-12-08T23:15:21.266Z,14.20
2022-12-08T23:18:08.526Z,14.20
2022-12-08T23:20:54.052Z,14.20
2022-12-08T23:23:39.657Z,14.10
2022-12-08T23:26:27.317Z,14.10
2022-12-08T23:29:12.891Z,14.10
2022-12-08T23:31:59.177Z,14.10
2022-12-08T23:34:46.936Z,14.10
2022-12-08T23:37:32.588Z,14.10
2022-12-08T23:40:18.252Z,14.00
2022-12-08T23:43:06.159Z,14.00
2022-12-08T23:45:51.864Z,14.00
2022-12-08T23:48:37.460Z,14.00
2022-12-08T23:51:22.883Z,14.00
2022-12-08T23:54:08.838Z,14.00
2022-12-08T23:56:55.059Z,14.00
2022-12-08T23:59:40.712Z,13.90
